Time;durP1;ratioP1;P1;durP2;ratioP2;P2;SDS_P1;SDS_P2;PMS_P1;PMS_P2;Temp;Humidity;BMP_temperature;BMP_pressure;BME280_temperature;BME280_humidity;BME280_pressure;Samples;Min_cycle;Max_cycle;Signal;HPM_P1;HPM_P2
2022/07/01 00:00:59;;;;;;;33.63;30.03;;;;;;;20.94;nan;98686.06;2097720;28;20448;-73
2022/07/01 00:02:01;;;;;;;33.13;29.70;;;;;;;20.93;nan;98689.91;2097795;28;20878;-72
2022/07/01 00:03:01;;;;;;;32.70;29.23;;;;;;;20.92;nan;98682.16;2090287;28;20433;-73
2022/07/01 00:04:03;;;;;;;32.63;29.10;;;;;;;20.91;nan;98689.50;2090138;28;20461;-73
2022/07/01 00:05:04;;;;;;;33.37;29.77;;;;;;;20.88;nan;98688.34;2090335;28;20191;-73
2022/07/01 00:06:23;;;;;;;32.60;29.27;;;;;;;20.88;nan;98693.00;2099148;28;20448;-73
2022/07/01 00:07:29;;;;;;;36.27;30.10;;;;;;;20.85;nan;98689.09;2099047;28;20499;-73
2022/07/01 00:08:30;;;;;;;32.73;29.67;;;;;;;20.82;nan;98687.13;2091628;28;20794;-73
2022/07/01 00:09:31;;;;;;;37.30;29.63;;;;;;;20.81;nan;98688.25;2099204;28;20527;-73
2022/07/01 00:10:32;;;;;;;33.33;29.83;;;;;;;20.81;nan;98690.19;2099275;28;20749;-73
2022/07/01 00:11:34;;;;;;;34.67;30.50;;;;;;;20.81;nan;98695.63;2091615;28;20822;-73
2022/07/01 00:12:34;;;;;;;33.20;29.83;;;;;;;20.80;nan;98697.56;2091726;28;20277;-73
2022/07/01 00:13:37;;;;;;;33.57;30.23;;;;;;;20.77;nan;98692.88;2091818;28;20940;-73
2022/07/01 00:14:38;;;;;;;34.40;29.23;;;;;;;20.76;nan;98683.19;2091684;28;20187;-73
2022/07/01 00:15:40;;;;;;;34.03;30.70;;;;;;;20.75;nan;98700.59;2091129;28;20564;-73
2022/07/01 00:16:41;;;;;;;32.47;29.33;;;;;;;20.75;nan;98697.09;2090966;28;20473;-73
2022/07/01 00:17:43;;;;;;;33.30;30.00;;;;;;;20.73;nan;98696.69;2091549;28;20441;-73
2022/07/01 00:18:44;;;;;;;33.40;30.23;;;;;;;20.72;nan;98693.22;2091556;28;20218;-73
2022/07/01 00:19:45;;;;;;;32.77;29.70;;;;;;;20.70;nan;98698.25;2091539;28;20529;-73
2022/07/01 00:20:48;;;;;;;32.30;29.27;;;;;;;20.69;nan;98702.09;2091796;28;20197;-73
2022/07/01 00:21:53;;;;;;;31.77;28.63;;;;;;;20.67;nan;98698.19;2091040;28;20469;-73
2022/07/01 00:22:55;;;;;;;32.83;29.40;;;;;;;20.67;nan;98701.66;2098994;28;20436;-73
2022/07/01 00:23:57;;;;;;;31.47;28.67;;;;;;;20.68;nan;98700.53;2099226;28;20888;-73
2022/07/01 00:24:57;;;;;;;32.27;28.87;;;;;;;20.67;nan;98701.66;2091523;28;20521;-73
2022/07/01 00:25:59;;;;;;;33.87;30.43;;;;;;;20.65;nan;98695.06;2090805;28;20445;-73
2022/07/01 00:27:01;;;;;;;33.17;29.67;;;;;;;20.66;nan;98702.06;2090897;28;20230;-73
2022/07/01 00:28:04;;;;;;;32.40;29.17;;;;;;;20.65;nan;98695.84;2099456;28;20444;-73
2022/07/01 00:29:05;;;;;;;33.20;29.77;;;;;;;20.64;nan;98697.00;2099108;28;20444;-73
2022/07/01 00:30:08;;;;;;;34.20;30.90;;;;;;;20.64;nan;98694.28;2099285;28;20490;-73
2022/07/01 00:31:08;;;;;;;32.93;29.53;;;;;;;20.64;nan;98696.22;2091442;28;20223;-73
2022/07/01 00:32:10;;;;;;;32.80;29.33;;;;;;;20.62;nan;98691.19;2091013;28;20437;-73
2022/07/01 00:33:11;;;;;;;34.03;30.37;;;;;;;20.60;nan;98690.78;2090965;28;20191;-73
2022/07/01 00:34:14;;;;;;;32.73;29.77;;;;;;;20.60;nan;98690.78;2091409;28;20430;-73
2022/07/01 00:35:17;;;;;;;33.20;29.80;;;;;;;20.60;nan;98690.78;2091458;28;20194;-73
2022/07/01 00:36:18;;;;;;;33.63;30.47;;;;;;;20.58;nan;98693.06;2090965;28;20453;-73
2022/07/01 00:37:19;;;;;;;34.03;30.80;;;;;;;20.57;nan;98688.78;2091418;28;20429;-73
2022/07/01 00:38:21;;;;;;;35.20;31.10;;;;;;;20.56;nan;98690.72;2091537;28;20642;-73
2022/07/01 00:39:23;;;;;;;32.70;29.40;;;;;;;20.55;nan;98688.38;2091416;28;20426;-73
2022/07/01 00:40:24;;;;;;;33.93;30.47;;;;;;;20.54;nan;98689.53;2098964;28;20821;-73
2022/07/01 00:41:26;;;;;;;32.53;29.33;;;;;;;20.50;nan;98688.72;2091060;28;20467;-73
2022/07/01 00:42:29;;;;;;;33.17;30.00;;;;;;;20.49;nan;98682.50;2090778;28;20286;-73
2022/07/01 00:43:36;;;;;;;33.03;29.93;;;;;;;20.47;nan;98684.81;2091453;28;20426;-73
2022/07/01 00:44:37;;;;;;;34.00;30.27;;;;;;;20.46;nan;98687.91;2091637;28;20486;-73
2022/07/01 00:45:44;;;;;;;33.77;30.27;;;;;;;20.46;nan;98687.91;2091677;28;20432;-73
2022/07/01 00:46:45;;;;;;;44.53;30.33;;;;;;;20.43;nan;98684.00;2099010;28;20688;-73
2022/07/01 00:47:49;;;;;;;34.37;30.97;;;;;;;20.41;nan;98682.78;2099039;28;20787;-73
2022/07/01 00:48:51;;;;;;;32.80;29.57;;;;;;;20.40;nan;98681.22;2090671;28;20730;-73
2022/07/01 00:49:53;;;;;;;32.53;29.10;;;;;;;20.39;nan;98682.38;2090605;28;20540;-73
2022/07/01 00:50:54;;;;;;;34.77;30.17;;;;;;;20.36;nan;98683.91;2090333;28;20460;-73
2022/07/01 00:51:56;;;;;;;34.13;30.57;;;;;;;20.37;nan;98681.97;2090646;28;20437;-72
2022/07/01 00:52:57;;;;;;;33.80;30.63;;;;;;;20.36;nan;98683.13;2090829;28;20233;-73
2022/07/01 00:54:00;;;;;;;33.20;29.83;;;;;;;20.35;nan;98690.47;2091281;28;20548;-73
2022/07/01 00:55:04;;;;;;;37.17;29.83;;;;;;;20.31;nan;98679.56;2098843;28;20523;-72
2022/07/01 00:56:05;;;;;;;32.43;29.03;;;;;;;20.31;nan;98689.63;2098620;28;20497;-73
2022/07/01 00:57:08;;;;;;;34.30;30.10;;;;;;;20.28;nan;98676.84;2098827;28;20456;-73
2022/07/01 00:58:09;;;;;;;33.10;29.90;;;;;;;20.24;nan;98676.81;2098756;28;20439;-73
2022/07/01 00:59:11;;;;;;;33.67;30.10;;;;;;;20.25;nan;98678.38;2091324;28;20475;-73
2022/07/01 01:00:14;;;;;;;32.83;29.87;;;;;;;20.24;nan;98682.22;2091269;28;20211;-73
2022/07/01 01:01:17;;;;;;;33.33;29.87;;;;;;;20.24;nan;98679.53;2091243;28;20426;-73
2022/07/01 01:02:19;;;;;;;36.60;29.77;;;;;;;20.23;nan;98677.94;2091234;28;20426;-73
2022/07/01 01:03:21;;;;;;;32.87;29.70;;;;;;;20.22;nan;98670.97;2091195;28;20437;-73
2022/07/01 01:04:21;;;;;;;34.53;30.63;;;;;;;20.21;nan;98672.09;2098969;28;20551;-73
2022/07/01 01:05:23;;;;;;;33.57;29.27;;;;;;;20.20;nan;98669.78;2090528;28;20437;-73
2022/07/01 01:06:23;;;;;;;33.33;29.90;;;;;;;20.20;nan;98670.56;2090215;28;20246;-73
2022/07/01 01:07:25;;;;;;;32.07;28.93;;;;;;;20.18;nan;98667.44;2090997;28;20436;-73
2022/07/01 01:08:27;;;;;;;37.50;30.73;;;;;;;20.19;nan;98673.63;2082337;28;20733;-74
2022/07/01 01:09:33;;;;;;;32.70;29.60;;;;;;;20.16;nan;98664.31;2090582;28;20774;-73
2022/07/01 01:10:35;;;;;;;32.27;29.00;;;;;;;20.17;nan;98671.31;2091281;28;20837;-73
2022/07/01 01:11:37;;;;;;;38.80;30.47;;;;;;;20.16;nan;98675.16;2091195;28;20432;-73
2022/07/01 01:12:37;;;;;;;34.73;30.87;;;;;;;20.14;nan;98668.53;2091264;28;20516;-73
2022/07/01 01:13:39;;;;;;;34.13;30.63;;;;;;;20.14;nan;98674.72;2090700;28;20445;-73
2022/07/01 01:14:50;;;;;;;34.03;30.73;;;;;;;20.13;nan;98677.81;2090775;28;20206;-73
2022/07/01 01:15:54;;;;;;;33.60;29.80;;;;;;;20.12;nan;98670.84;2091364;28;20463;-73
2022/07/01 01:16:54;;;;;;;31.47;28.37;;;;;;;20.11;nan;98674.69;2090845;28;20504;-73
2022/07/01 01:17:56;;;;;;;33.37;29.93;;;;;;;20.11;nan;98672.78;2090995;28;20491;-72
2022/07/01 01:18:57;;;;;;;37.57;30.30;;;;;;;20.13;nan;98673.16;2091115;28;20558;-73
2022/07/01 01:19:58;;;;;;;32.43;29.13;;;;;;;20.13;nan;98673.16;2098994;28;20455;-72
2022/07/01 01:21:00;;;;;;;33.90;30.70;;;;;;;20.13;nan;98669.69;2098245;28;20244;-73
2022/07/01 01:22:03;;;;;;;33.53;30.17;;;;;;;20.11;nan;98675.47;2091219;28;20752;-73
2022/07/01 01:23:07;;;;;;;35.27;29.57;;;;;;;20.09;nan;98666.16;2099020;28;20455;-73
2022/07/01 01:24:08;;;;;;;34.23;30.83;;;;;;;20.08;nan;98668.09;2098512;28;20425;-72
2022/07/01 01:25:10;;;;;;;33.10;29.90;;;;;;;20.08;nan;98667.31;2091065;28;20426;-72
2022/07/01 01:26:18;;;;;;;32.23;29.10;;;;;;;20.08;nan;98667.31;2091227;28;20214;-73
2022/07/01 01:27:19;;;;;;;32.87;29.73;;;;;;;20.09;nan;98668.88;2091036;28;20426;-73
2022/07/01 01:28:20;;;;;;;32.23;29.23;;;;;;;20.08;nan;98667.31;2098904;28;20440;-73
2022/07/01 01:29:22;;;;;;;32.70;29.23;;;;;;;20.08;nan;98668.09;2098779;28;20431;-73
2022/07/01 01:30:22;;;;;;;32.13;29.00;;;;;;;20.09;nan;98664.25;2091127;28;20187;-73
2022/07/01 01:31:33;;;;;;;33.23;30.00;;;;;;;20.13;nan;98673.16;2091038;28;20426;-73
2022/07/01 01:32:33;;;;;;;34.67;29.30;;;;;;;20.15;nan;98668.16;2091016;28;20195;-73
2022/07/01 01:33:35;;;;;;;31.50;28.60;;;;;;;20.17;nan;98676.72;2091202;28;21000;-73
2022/07/01 01:34:37;;;;;;;31.47;28.37;;;;;;;20.19;nan;98674.41;2098599;28;20251;-73
2022/07/01 01:35:40;;;;;;;32.20;29.20;;;;;;;20.19;nan;98671.69;2098454;28;20433;-73
2022/07/01 01:36:44;;;;;;;32.67;29.17;;;;;;;20.20;nan;98667.06;2090656;28;20457;-72
2022/07/01 01:37:46;;;;;;;32.87;29.60;;;;;;;20.21;nan;98672.09;2091229;28;20425;-73
2022/07/01 01:38:47;;;;;;;32.00;28.90;;;;;;;20.21;nan;98674.81;2098407;28;20476;-73
2022/07/01 01:39:48;;;;;;;32.87;29.97;;;;;;;20.20;nan;98675.19;2098727;28;20478;-72
2022/07/01 01:40:49;;;;;;;32.73;29.60;;;;;;;20.21;nan;98677.53;2090965;28;20233;-73
2022/07/01 01:41:51;;;;;;;31.27;28.10;;;;;;;20.17;nan;98674.00;2091087;28;20455;-73
2022/07/01 01:42:53;;;;;;;32.43;29.20;;;;;;;20.16;nan;98672.44;2091021;28;20947;-73
2022/07/01 01:43:55;;;;;;;33.43;28.60;;;;;;;20.16;nan;98677.09;2090863;28;20520;-72
2022/07/01 01:44:56;;;;;;;32.67;29.63;;;;;;;20.15;nan;98678.22;2091103;28;20465;-73
2022/07/01 01:45:59;;;;;;;32.03;28.93;;;;;;;20.12;nan;98679.75;2091262;28;20422;-73
2022/07/01 01:47:01;;;;;;;31.50;28.63;;;;;;;20.11;nan;98672.78;2091124;28;20191;-73
2022/07/01 01:48:02;;;;;;;32.67;29.53;;;;;;;20.10;nan;98670.44;2090980;28;20545;-73
2022/07/01 01:49:05;;;;;;;32.30;28.60;;;;;;;20.10;nan;98675.84;2090914;28;20432;-72
2022/07/01 01:50:10;;;;;;;32.30;29.33;;;;;;;20.09;nan;98675.06;2090162;28;20981;-73
2022/07/01 01:51:11;;;;;;;34.30;30.37;;;;;;;20.09;nan;98680.50;2090278;28;20533;-73
2022/07/01 01:52:14;;;;;;;31.97;28.97;;;;;;;20.08;nan;98681.63;2098539;28;20416;-73
2022/07/01 01:53:15;;;;;;;33.47;30.10;;;;;;;20.06;nan;98678.50;2098501;28;20230;-73
2022/07/01 01:54:16;;;;;;;33.10;29.53;;;;;;;20.05;nan;98685.06;2098581;28;20439;-72
2022/07/01 01:55:17;;;;;;;32.40;29.03;;;;;;;20.04;nan;98686.22;2090916;28;20219;-73
2022/07/01 01:56:19;;;;;;;32.80;29.17;;;;;;;20.03;nan;98684.66;2098665;28;20445;-73
2022/07/01 01:57:21;;;;;;;32.07;29.03;;;;;;;20.01;nan;98685.03;2098419;28;20240;-73
2022/07/01 01:58:24;;;;;;;34.53;30.10;;;;;;;20.01;nan;98701.28;2090756;28;20528;-73
2022/07/01 01:59:26;;;;;;;33.20;30.00;;;;;;;19.99;nan;98690.03;2090788;28;20432;-72
2022/07/01 02:00:28;;;;;;;31.83;28.93;;;;;;;19.98;nan;98690.38;2090749;28;20496;-73
2022/07/01 02:01:29;;;;;;;33.17;29.97;;;;;;;19.96;nan;98687.28;2090123;28;20213;-73
2022/07/01 02:02:30;;;;;;;32.93;29.73;;;;;;;19.95;nan;98691.13;2090082;28;20499;-73
2022/07/01 02:03:32;;;;;;;32.40;29.20;;;;;;;19.96;nan;98687.28;2090138;28;20198;-73
2022/07/01 02:04:35;;;;;;;32.70;29.20;;;;;;;19.94;nan;98681.44;2090784;28;20461;-73
2022/07/01 02:05:36;;;;;;;33.10;29.67;;;;;;;19.94;nan;98689.56;2090740;28;20429;-73
2022/07/01 02:06:37;;;;;;;33.33;29.80;;;;;;;19.95;nan;98686.50;2090578;28;20456;-73
2022/07/01 02:07:39;;;;;;;34.23;30.77;;;;;;;19.93;nan;98688.00;2090742;28;20191;-73
2022/07/01 02:08:41;;;;;;;32.77;29.57;;;;;;;19.93;nan;98682.59;2090718;28;20516;-72
2022/07/01 02:09:44;;;;;;;33.20;29.73;;;;;;;19.93;nan;98679.91;2098284;28;20822;-73
2022/07/01 02:10:47;;;;;;;32.73;29.63;;;;;;;19.93;nan;98690.72;2098168;28;20450;-73
2022/07/01 02:11:48;;;;;;;31.83;28.67;;;;;;;19.92;nan;98681.81;2090776;28;20421;-73
2022/07/01 02:12:50;;;;;;;32.03;29.13;;;;;;;19.91;nan;98688.38;2090036;28;20488;-72
2022/07/01 02:13:50;;;;;;;31.73;28.80;;;;;;;19.92;nan;98675.63;2090092;28;20653;-73
2022/07/01 02:14:52;;;;;;;31.83;28.77;;;;;;;19.93;nan;98688.00;2090803;28;20413;-73
2022/07/01 02:15:52;;;;;;;34.67;29.73;;;;;;;19.96;nan;98692.69;2098257;28;20207;-73
2022/07/01 02:16:56;;;;;;;31.40;28.07;;;;;;;19.95;nan;98685.72;2090260;28;20445;-73
2022/07/01 02:17:58;;;;;;;32.50;29.00;;;;;;;19.96;nan;98684.56;2090166;28;20681;-73
2022/07/01 02:19:01;;;;;;;32.87;29.37;;;;;;;19.98;nan;98684.97;2097837;28;21026;-73
2022/07/01 02:20:01;;;;;;;32.00;28.63;;;;;;;19.98;nan;98687.69;2098374;28;20452;-73
2022/07/01 02:21:03;;;;;;;31.23;28.33;;;;;;;19.98;nan;98684.97;2097654;28;20444;-73
2022/07/01 02:22:04;;;;;;;30.77;27.87;;;;;;;19.95;nan;98680.28;2098472;28;20178;-73
2022/07/01 02:23:06;;;;;;;31.07;28.20;;;;;;;19.96;nan;98687.28;2090579;28;20435;-72
2022/07/01 02:24:09;;;;;;;30.77;27.93;;;;;;;19.95;nan;98685.72;2090803;28;20199;-72
2022/07/01 02:25:11;;;;;;;32.57;28.80;;;;;;;19.95;nan;98685.72;2090489;28;20465;-73
2022/07/01 02:26:12;;;;;;;33.90;28.53;;;;;;;19.94;nan;98689.56;2098183;28;20468;-73
2022/07/01 02:27:14;;;;;;;33.40;29.00;;;;;;;19.93;nan;98693.44;2090243;28;20444;-73
2022/07/01 02:28:16;;;;;;;32.47;29.27;;;;;;;19.92;nan;98686.47;2090020;28;20460;-73
2022/07/01 02:29:16;;;;;;;32.30;28.63;;;;;;;19.94;nan;98695.75;2097041;28;20503;-73
2022/07/01 02:30:18;;;;;;;31.47;28.60;;;;;;;19.93;nan;98698.84;2098260;28;20429;-73
2022/07/01 02:31:19;;;;;;;31.13;28.13;;;;;;;19.90;nan;98692.25;2090751;28;20222;-73
2022/07/01 02:32:20;;;;;;;30.63;27.63;;;;;;;19.92;nan;98698.06;2090633;28;20427;-73
2022/07/01 02:33:21;;;;;;;31.40;28.20;;;;;;;19.90;nan;98694.94;2090571;28;20215;-73
2022/07/01 02:34:23;;;;;;;32.07;28.77;;;;;;;19.90;nan;98700.38;2090764;28;20433;-73
2022/07/01 02:35:23;;;;;;;32.97;28.70;;;;;;;19.91;nan;98701.16;2098139;28;20722;-73
2022/07/01 02:36:27;;;;;;;32.03;28.63;;;;;;;19.91;nan;98703.84;2097946;28;20521;-73
2022/07/01 02:37:29;;;;;;;31.90;28.37;;;;;;;19.89;nan;98704.19;2090529;28;20195;-72
2022/07/01 02:38:32;;;;;;;31.30;28.43;;;;;;;19.88;nan;98701.84;2090410;28;20547;-72
2022/07/01 02:39:33;;;;;;;32.37;29.03;;;;;;;19.86;nan;98707.66;2090740;28;20409;-73
2022/07/01 02:40:37;;;;;;;31.17;28.27;;;;;;;19.85;nan;98703.38;2090520;28;20425;-73
2022/07/01 02:42:54;;;;;;;31.37;28.27;;;;;;;19.83;nan;98702.19;2089971;28;20468;-73
2022/07/01 02:43:56;;;;;;;30.90;27.83;;;;;;;19.83;nan;98707.59;2098044;28;20436;-73
2022/07/01 02:44:58;;;;;;;31.87;28.70;;;;;;;19.81;nan;98705.28;2098204;28;20569;-73
2022/07/01 02:46:00;;;;;;;31.67;28.63;;;;;;;19.80;nan;98700.97;2098062;28;20509;-73
2022/07/01 02:47:03;;;;;;;32.33;28.93;;;;;;;19.79;nan;98712.97;2097844;28;20460;-72
2022/07/01 02:48:04;;;;;;;31.70;28.80;;;;;;;19.79;nan;98704.06;2090453;28;20963;-73
2022/07/01 02:49:06;;;;;;;33.30;29.37;;;;;;;19.79;nan;98709.47;2090417;28;20431;-73
2022/07/01 02:50:09;;;;;;;31.23;28.53;;;;;;;19.76;nan;98702.88;2098062;28;20478;-73
2022/07/01 02:51:10;;;;;;;32.47;29.10;;;;;;;19.76;nan;98708.28;2089349;28;20552;-73
2022/07/01 02:52:12;;;;;;;31.93;29.00;;;;;;;19.75;nan;98704.81;2089878;28;20453;-73
2022/07/01 02:53:14;;;;;;;32.40;29.00;;;;;;;19.74;nan;98710.59;2090592;28;20509;-73
2022/07/01 02:54:16;;;;;;;31.30;28.33;;;;;;;19.71;nan;98705.88;2098153;28;20453;-73
2022/07/01 02:55:18;;;;;;;31.67;28.47;;;;;;;19.71;nan;98711.28;2089794;28;20436;-74
2022/07/01 02:56:20;;;;;;;32.70;29.33;;;;;;;19.69;nan;98711.66;2090250;28;20521;-74
2022/07/01 02:57:22;;;;;;;31.60;28.70;;;;;;;19.68;nan;98712.03;2090484;28;20465;-74
2022/07/01 02:58:23;;;;;;;32.03;28.67;;;;;;;19.67;nan;98713.97;2090401;28;20913;-74
2022/07/01 02:59:25;;;;;;;31.50;28.30;;;;;;;19.64;nan;98714.69;2090401;28;20520;-74
2022/07/01 03:00:27;;;;;;;31.63;28.70;;;;;;;19.65;nan;98715.47;2089645;28;21028;-74
2022/07/01 03:01:27;;;;;;;32.63;29.60;;;;;;;19.64;nan;98717.41;2081544;28;20480;-73
2022/07/01 03:02:29;;;;;;;32.17;29.10;;;;;;;19.64;nan;98711.22;2089892;28;20963;-73
2022/07/01 03:03:31;;;;;;;35.57;28.93;;;;;;;19.62;nan;98714.25;2089624;28;20669;-72
2022/07/01 03:04:33;;;;;;;34.30;29.97;;;;;;;19.62;nan;98711.56;2089852;28;20418;-73
2022/07/01 03:05:37;;;;;;;32.23;29.43;;;;;;;19.63;nan;98705.00;2090582;28;20425;-72
2022/07/01 03:06:40;;;;;;;32.70;29.57;;;;;;;19.64;nan;98709.28;2090254;28;20477;-73
2022/07/01 03:07:43;;;;;;;33.33;30.20;;;;;;;19.64;nan;98705.81;2090451;28;20483;-73
2022/07/01 03:08:43;;;;;;;32.93;29.63;;;;;;;19.65;nan;98710.84;2097954;28;20539;-72
2022/07/01 03:09:46;;;;;;;32.43;29.50;;;;;;;19.66;nan;98717.81;2098093;28;20431;-73
2022/07/01 03:10:49;;;;;;;36.47;30.70;;;;;;;19.68;nan;98717.44;2090588;28;20301;-73
2022/07/01 03:11:52;;;;;;;31.87;28.87;;;;;;;19.67;nan;98713.19;2090372;28;20425;-73
2022/07/01 03:12:55;;;;;;;32.30;29.00;;;;;;;19.67;nan;98719.38;2090486;28;20463;-73
2022/07/01 03:14:00;;;;;;;33.27;29.87;;;;;;;19.68;nan;98714.75;2089713;28;20430;-73
2022/07/01 03:15:03;;;;;;;32.07;29.10;;;;;;;19.69;nan;98719.78;2089724;28;20475;-73
2022/07/01 03:16:05;;;;;;;32.90;30.00;;;;;;;19.69;nan;98721.72;2097956;28;20482;-73
2022/07/01 03:17:05;;;;;;;31.77;28.77;;;;;;;19.69;nan;98722.50;2097999;28;20428;-73
2022/07/01 03:18:08;;;;;;;32.27;28.87;;;;;;;19.69;nan;98727.91;2089666;28;20974;-73
2022/07/01 03:19:09;;;;;;;32.47;29.47;;;;;;;19.69;nan;98722.50;2089884;28;20183;-72
2022/07/01 03:20:13;;;;;;;33.13;29.63;;;;;;;19.70;nan;98715.94;2090303;28;20421;-73
2022/07/01 03:21:14;;;;;;;32.33;29.17;;;;;;;19.69;nan;98719.78;2097156;28;20313;-73
2022/07/01 03:22:16;;;;;;;32.90;29.60;;;;;;;19.69;nan;98719.78;2097928;28;20456;-73
2022/07/01 03:23:16;;;;;;;31.80;28.90;;;;;;;19.68;nan;98717.44;2089847;28;20254;-73
2022/07/01 03:24:18;;;;;;;32.37;29.13;;;;;;;19.68;nan;98714.75;2090341;28;20547;-73
2022/07/01 03:25:20;;;;;;;31.97;28.87;;;;;;;19.67;nan;98713.97;2098068;28;20238;-73
2022/07/01 03:26:23;;;;;;;33.20;29.23;;;;;;;19.68;nan;98710.09;2097869;28;20930;-73
2022/07/01 03:27:25;;;;;;;32.83;29.57;;;;;;;19.68;nan;98710.09;2090392;28;20467;-73
2022/07/01 03:28:27;;;;;;;32.83;29.23;;;;;;;19.68;nan;98710.09;2090465;28;20417;-73
2022/07/01 03:29:27;;;;;;;32.83;29.57;;;;;;;19.68;nan;98710.09;2090270;28;20541;-72
2022/07/01 03:30:29;;;;;;;32.93;29.83;;;;;;;19.66;nan;98712.41;2090313;28;20488;-73
2022/07/01 03:31:31;;;;;;;32.33;28.90;;;;;;;19.68;nan;98709.31;2090472;28;20199;-73
2022/07/01 03:32:38;;;;;;;32.33;29.33;;;;;;;19.70;nan;98713.22;2090447;28;20947;-73
2022/07/01 03:33:39;;;;;;;33.43;30.20;;;;;;;19.70;nan;98715.16;2090481;28;20768;-73
2022/07/01 03:34:45;;;;;;;32.80;29.17;;;;;;;19.70;nan;98718.63;2089831;28;20504;-72
2022/07/01 03:35:46;;;;;;;32.50;29.20;;;;;;;19.70;nan;98710.50;2089985;28;20262;-73
2022/07/01 03:36:47;;;;;;;32.87;29.70;;;;;;;19.71;nan;98714.00;2089373;28;20951;-72
2022/07/01 03:37:48;;;;;;;32.80;29.60;;;;;;;19.72;nan;98716.38;2089671;28;20680;-72
2022/07/01 03:38:50;;;;;;;32.87;29.73;;;;;;;19.71;nan;98712.06;2089405;28;20481;-73
2022/07/01 03:39:51;;;;;;;33.83;30.37;;;;;;;19.72;nan;98710.16;2089786;28;20220;-73
2022/07/01 03:40:56;;;;;;;34.40;30.87;;;;;;;19.73;nan;98717.16;2091548;28;20451;-72
2022/07/01 03:41:59;;;;;;;34.07;30.77;;;;;;;19.73;nan;98722.56;2099540;28;20205;-72
2022/07/01 03:43:03;;;;;;;34.27;30.87;;;;;;;19.75;nan;98717.56;2099065;28;20425;-73
2022/07/01 03:44:04;;;;;;;32.80;29.53;;;;;;;19.76;nan;98716.41;2091818;28;20520;-73
2022/07/01 03:45:06;;;;;;;34.23;30.63;;;;;;;19.75;nan;98726.44;2091806;28;20429;-73
2022/07/01 03:46:07;;;;;;;33.50;30.40;;;;;;;19.78;nan;98730.34;2091958;28;20229;-73
2022/07/01 03:47:09;;;;;;;34.23;30.77;;;;;;;19.77;nan;98721.44;2092004;28;20428;-73
2022/07/01 03:48:12;;;;;;;34.13;30.83;;;;;;;19.80;nan;98721.84;2091924;28;20191;-72
2022/07/01 03:49:14;;;;;;;34.00;30.80;;;;;;;19.82;nan;98730.41;2091759;28;20443;-73
2022/07/01 03:50:14;;;;;;;34.47;30.97;;;;;;;19.83;nan;98726.56;2092001;28;20524;-73
2022/07/01 03:51:16;;;;;;;36.80;31.23;;;;;;;19.84;nan;98728.91;2099196;28;20452;-73
2022/07/01 03:52:17;;;;;;;33.60;30.40;;;;;;;19.86;nan;98723.13;2099398;28;20226;-73
2022/07/01 03:54:39;;;;;;;38.93;30.70;;;;;;;19.91;nan;98718.16;2099501;28;20667;-73
2022/07/01 03:55:40;;;;;;;34.27;31.00;;;;;;;19.94;nan;98727.47;2099280;28;20487;-73
2022/07/01 03:56:42;;;;;;;34.23;30.80;;;;;;;19.96;nan;98725.97;2090970;28;20537;-73
2022/07/01 03:57:44;;;;;;;34.30;30.60;;;;;;;19.98;nan;98723.69;2091156;28;20425;-73
2022/07/01 03:58:45;;;;;;;33.63;30.17;;;;;;;20.00;nan;98721.38;2091792;28;20796;-73
2022/07/01 03:59:46;;;;;;;33.47;30.33;;;;;;;20.03;nan;98720.66;2091072;28;20460;-73
2022/07/01 04:00:49;;;;;;;35.53;31.13;;;;;;;20.05;nan;98717.56;2091151;28;20194;-73
2022/07/01 04:01:53;;;;;;;33.83;30.43;;;;;;;20.09;nan;98723.03;2091915;28;20433;-73
2022/07/01 04:02:58;;;;;;;33.53;30.47;;;;;;;20.10;nan;98722.66;2099340;28;20448;-73
2022/07/01 04:04:02;;;;;;;34.73;31.00;;;;;;;20.15;nan;98727.75;2099047;28;20472;-73
2022/07/01 04:05:03;;;;;;;34.77;31.17;;;;;;;20.17;nan;98724.69;2099197;28;20440;-73
2022/07/01 04:06:05;;;;;;;33.83;30.63;;;;;;;20.18;nan;98718.91;2098849;28;20432;-73
2022/07/01 04:07:09;;;;;;;34.33;31.07;;;;;;;20.21;nan;98720.88;2091795;28;20500;-73
2022/07/01 04:08:11;;;;;;;34.17;30.80;;;;;;;20.22;nan;98717.00;2091702;28;20428;-73
2022/07/01 04:09:18;;;;;;;34.33;29.47;;;;;;;20.25;nan;98724.41;2091878;28;20429;-73
2022/07/01 04:10:19;;;;;;;34.13;30.90;;;;;;;20.30;nan;98723.31;2099286;28;20481;-73
2022/07/01 04:11:21;;;;;;;35.37;31.63;;;;;;;20.31;nan;98719.44;2099405;28;20416;-73
2022/07/01 04:12:24;;;;;;;34.00;30.63;;;;;;;20.36;nan;98723.78;2091645;28;20250;-73
2022/07/01 04:13:25;;;;;;;34.73;31.33;;;;;;;20.38;nan;98724.94;2091815;28;20574;-73
2022/07/01 04:14:27;;;;;;;33.60;30.20;;;;;;;20.39;nan;98720.31;2091621;28;20785;-73
2022/07/01 04:15:28;;;;;;;36.30;31.77;;;;;;;20.41;nan;98718.00;2099225;28;20935;-73
2022/07/01 04:16:32;;;;;;;34.80;31.37;;;;;;;20.45;nan;98724.28;2090917;28;20768;-73
2022/07/01 04:17:33;;;;;;;34.97;31.50;;;;;;;20.49;nan;98719.69;2083189;28;20257;-73
2022/07/01 04:18:35;;;;;;;34.47;31.00;;;;;;;20.50;nan;98729.38;2091221;28;20425;-73
2022/07/01 04:19:36;;;;;;;36.03;32.67;;;;;;;20.53;nan;98725.94;2091700;28;20194;-74
2022/07/01 04:20:38;;;;;;;38.93;31.93;;;;;;;20.56;nan;98719.75;2091585;28;20437;-73
2022/07/01 04:22:58;;;;;;;35.33;31.60;;;;;;;20.63;nan;98724.50;2091652;28;20418;-74
2022/07/01 04:24:00;;;;;;;34.40;31.13;;;;;;;20.65;nan;98722.97;2091799;28;20435;-74
2022/07/01 04:25:03;;;;;;;34.37;30.83;;;;;;;20.68;nan;98726.88;2091522;28;20187;-73
2022/07/01 04:26:04;;;;;;;35.10;31.87;;;;;;;20.70;nan;98722.63;2091575;28;20508;-73
2022/07/01 04:27:06;;;;;;;34.07;30.93;;;;;;;20.72;nan;98724.97;2091493;28;20436;-73
2022/07/01 04:28:08;;;;;;;36.07;32.07;;;;;;;20.76;nan;98726.59;2091729;28;20241;-73
2022/07/01 04:29:10;;;;;;;35.00;31.53;;;;;;;20.78;nan;98724.28;2091456;28;20476;-73
2022/07/01 04:30:11;;;;;;;35.43;31.77;;;;;;;20.81;nan;98720.81;2099110;28;20455;-73
2022/07/01 04:31:13;;;;;;;35.60;31.77;;;;;;;20.84;nan;98722.75;2091102;28;20441;-73
2022/07/01 04:32:14;;;;;;;35.93;32.23;;;;;;;20.85;nan;98721.63;2090906;28;20781;-73
2022/07/01 04:33:15;;;;;;;35.23;31.90;;;;;;;20.89;nan;98722.44;2091583;28;20456;-73
2022/07/01 04:34:16;;;;;;;35.90;32.13;;;;;;;20.91;nan;98724.78;2091686;28;20186;-73
2022/07/01 04:35:20;;;;;;;35.03;31.47;;;;;;;20.95;nan;98724.81;2091672;28;20436;-73
2022/07/01 04:36:21;;;;;;;39.93;32.20;;;;;;;20.97;nan;98726.00;2090983;28;20481;-73
2022/07/01 04:37:23;;;;;;;34.43;31.03;;;;;;;21.01;nan;98726.81;2091549;28;20409;-74
2022/07/01 04:38:25;;;;;;;35.87;32.03;;;;;;;21.09;nan;98720.28;2091322;28;20680;-73
2022/07/01 04:39:27;;;;;;;38.93;33.30;;;;;;;21.26;nan;98718.09;2091599;28;20457;-74
2022/07/01 04:40:27;;;;;;;34.90;30.93;;;;;;;21.35;nan;98716.66;2091434;28;20516;-74
2022/07/01 04:42:51;;;;;;;35.67;31.87;;;;;;;21.47;nan;98717.53;2099297;28;20233;-74
2022/07/01 04:43:54;;;;;;;35.47;31.67;;;;;;;21.47;nan;98710.19;2099149;28;20455;-74
2022/07/01 04:44:57;;;;;;;34.53;31.17;;;;;;;21.49;nan;98713.28;2099144;28;20992;-74
2022/07/01 04:45:58;;;;;;;34.03;30.80;;;;;;;21.53;nan;98716.78;2099106;28;20469;-74
2022/07/01 04:47:00;;;;;;;39.07;31.67;;;;;;;21.53;nan;98711.38;2099267;28;20425;-74
2022/07/01 04:48:04;;;;;;;35.83;31.93;;;;;;;21.52;nan;98720.66;2091334;28;20229;-74
2022/07/01 04:49:07;;;;;;;35.27;31.67;;;;;;;21.53;nan;98721.44;2091462;28;20430;-73
2022/07/01 04:50:10;;;;;;;35.70;31.97;;;;;;;21.54;nan;98720.28;2091543;28;20429;-74
2022/07/01 04:51:12;;;;;;;36.20;31.77;;;;;;;21.55;nan;98721.88;2090850;28;20464;-74
2022/07/01 04:52:14;;;;;;;35.20;31.70;;;;;;;21.55;nan;98728.06;2090451;28;20417;-74
2022/07/01 04:53:15;;;;;;;35.50;31.63;;;;;;;21.57;nan;98724.97;2091270;28;20433;-74
2022/07/01 04:54:17;;;;;;;41.30;31.63;;;;;;;21.59;nan;98725.38;2091326;28;20417;-74
2022/07/01 04:55:18;;;;;;;38.17;32.57;;;;;;;21.59;nan;98726.16;2091434;28;20191;-75
2022/07/01 04:56:20;;;;;;;35.83;32.27;;;;;;;21.61;nan;98723.06;2091141;28;21019;-74
2022/07/01 04:57:21;;;;;;;36.03;32.13;;;;;;;21.63;nan;98728.88;2091265;28;20212;-74
2022/07/01 04:58:22;;;;;;;35.10;31.60;;;;;;;21.65;nan;98732.03;2099109;28;20501;-74